首页
METAR-TAF:

METAR-TAF

机场 :

卢森堡-芬德尔国际机场

卢森堡, 卢森堡

纬度: 49-37N, 经度: 006-13E, 海拔: 376米

当前天气观测

该预报发布于19分钟前的14:20 UTC
风速17节,风向西
温度 12°C
湿度 58%
气压 1025 hPa
能见度10公里或以上
1500米以下无云,无积雨云

METAR: ELLX 231420Z 26017KT CAVOK 12/04 Q1025 TEMPO 27015G25KT

时间: 16:39 (14:39 UTC)

预报

该预报发布于3小时和39分钟前的11:00 UTC
预报有效从23日的 12点(UTC)到 24日的 18点(UTC)
风速12节,风向西
能见度10公里或以上
1500米以下无云,无积雨云
成为
从 23日的 16点(UTC)到 23日的 18点(UTC)
风速6节,风向西
成为
从 23日的 23点(UTC)到 24日的 02点(UTC)
多云层高于1000英尺
短暂存在
从 24日的 04点(UTC)到 24日的 18点(UTC)
能見度: 3000
多云层高于500英尺
小毛毛雨, 轻雾

TAF: ELLX 231100Z 2312/2418 26012KT CAVOK BECMG 2316/2318 26006KT BECMG 2323/2402 BKN010 TEMPO 2404/2418 3000 -DZ BR BKN005

超过4000个机场的气象观测和天气预报(METAR&TAF报告)。

可查询的气象台以黄色和红色小点在地图上表示。

将鼠标移到小点上方,可查看气象台名称。

然后点击查看天气观测和预报。

如需切换地图:点击带黑十字的绿色按钮放大地图;点击带横线的绿色按钮缩小地图;或者点击绿色箭头查看邻近地区的地图。


METAR-TAF: